createdAt,value
2022-12-23T00:00:05.753Z,10.22
2022-12-23T00:02:42.129Z,10.30
2022-12-23T00:05:13.869Z,10.14
2022-12-23T00:07:45.431Z,10.21
2022-12-23T00:10:17.120Z,10.15
2022-12-23T00:12:48.691Z,10.22
2022-12-23T00:15:20.403Z,10.21
2022-12-23T00:17:52.020Z,10.28
2022-12-23T00:20:23.691Z,10.28
2022-12-23T00:22:55.283Z,10.40
2022-12-23T00:25:27.156Z,10.52
2022-12-23T00:27:58.722Z,10.64
2022-12-23T00:30:30.253Z,10.52
2022-12-23T00:33:01.808Z,10.52
2022-12-23T00:35:33.411Z,10.38
2022-12-23T00:38:05.000Z,10.46
2022-12-23T00:40:36.777Z,10.48
2022-12-23T00:43:08.328Z,10.60
2022-12-23T00:45:39.961Z,10.48
2022-12-23T00:48:11.592Z,10.55
2022-12-23T00:50:43.391Z,10.53
2022-12-23T00:53:15.031Z,10.60
2022-12-23T00:55:47.490Z,10.53
2022-12-23T00:58:20.799Z,10.54
2022-12-23T01:00:53.544Z,10.48
2022-12-23T01:03:25.404Z,10.44
2022-12-23T01:06:01.410Z,10.45
2022-12-23T01:08:32.987Z,10.48
2022-12-23T01:11:07.150Z,10.43
2022-12-23T01:13:39.432Z,10.50
2022-12-23T01:16:17.239Z,10.52
2022-12-23T01:18:49.404Z,10.38
2022-12-23T01:21:21.146Z,10.37
2022-12-23T01:23:52.699Z,10.45
2022-12-23T01:26:24.370Z,10.75
2022-12-23T01:28:57.818Z,10.50
2022-12-23T01:31:30.190Z,10.53
2022-12-23T01:34:01.846Z,10.52
2022-12-23T01:36:33.471Z,10.55
2022-12-23T01:39:05.064Z,10.74
2022-12-23T01:41:36.726Z,10.65
2022-12-23T01:44:45.893Z,10.67
2022-12-23T01:47:40.379Z,10.59
2022-12-23T01:50:33.035Z,10.55
2022-12-23T01:53:16.121Z,10.71
2022-12-23T01:56:15.158Z,11.02
2022-12-23T01:58:52.678Z,11.09
2022-12-23T02:01:24.970Z,10.69
2022-12-23T02:04:02.679Z,10.88
2022-12-23T02:06:37.475Z,11.00
2022-12-23T02:09:34.056Z,11.21
2022-12-23T02:13:04.197Z,11.16
2022-12-23T02:16:00.192Z,11.14
2022-12-23T02:19:06.395Z,11.21
2022-12-23T02:21:57.156Z,11.18
2022-12-23T02:24:54.944Z,11.42
2022-12-23T02:27:39.125Z,11.34
2022-12-23T02:30:25.604Z,11.06
2022-12-23T02:33:15.816Z,10.94
2022-12-23T02:36:20.752Z,11.11
2022-12-23T02:39:25.149Z,10.95
2022-12-23T02:42:07.043Z,11.15
2022-12-23T02:45:07.444Z,11.02
2022-12-23T02:47:54.898Z,11.27
2022-12-23T02:50:38.204Z,11.24
2022-12-23T02:53:30.508Z,11.36
2022-12-23T02:56:06.995Z,11.51
2022-12-23T02:58:50.863Z,11.14
2022-12-23T03:01:27.377Z,11.32
2022-12-23T03:03:59.935Z,11.20
2022-12-23T03:06:44.374Z,11.27
2022-12-23T03:09:30.917Z,11.59
2022-12-23T03:12:20.880Z,11.63
2022-12-23T03:15:16.824Z,11.47
2022-12-23T03:18:04.808Z,11.65
2022-12-23T03:20:54.474Z,11.68
2022-12-23T03:23:32.352Z,11.49
2022-12-23T03:26:21.951Z,11.74
2022-12-23T03:29:12.247Z,11.26
2022-12-23T03:31:47.435Z,11.51
2022-12-23T03:34:26.571Z,11.58
2022-12-23T03:37:04.415Z,11.37
2022-12-23T03:39:49.385Z,11.51
2022-12-23T03:42:37.209Z,11.67
2022-12-23T03:45:38.200Z,11.56
2022-12-23T03:48:24.271Z,11.50
2022-12-23T03:51:04.114Z,11.62
2022-12-23T03:53:43.367Z,11.75
2022-12-23T03:56:24.267Z,11.64
2022-12-23T03:59:02.506Z,11.38
2022-12-23T04:01:49.582Z,11.28
2022-12-23T04:04:29.377Z,11.82
2022-12-23T04:07:14.741Z,12.00
2022-12-23T04:09:48.089Z,12.23
2022-12-23T04:12:24.090Z,11.86
2022-12-23T04:14:56.129Z,11.89
2022-12-23T04:17:29.193Z,11.85
2022-12-23T04:20:01.205Z,11.86
2022-12-23T04:22:32.787Z,12.18
2022-12-23T04:25:04.895Z,11.83
2022-12-23T04:27:36.672Z,12.48
2022-12-23T04:30:11.291Z,12.35
2022-12-23T04:32:43.175Z,11.87
2022-12-23T04:35:15.084Z,11.86
2022-12-23T04:37:47.010Z,11.84
2022-12-23T04:40:19.173Z,12.01
2022-12-23T04:42:50.982Z,11.61
2022-12-23T04:45:22.772Z,11.53
2022-12-23T04:47:55.220Z,11.66
2022-12-23T04:50:27.101Z,11.89
2022-12-23T04:52:59.152Z,11.72
2022-12-23T04:55:31.103Z,11.70
2022-12-23T04:58:02.973Z,11.85
2022-12-23T05:00:39.447Z,11.89
2022-12-23T05:03:12.189Z,11.68
2022-12-23T05:05:44.405Z,11.78
2022-12-23T05:08:16.524Z,11.82
2022-12-23T05:10:48.347Z,11.83
2022-12-23T05:13:20.386Z,11.84
2022-12-23T05:15:54.570Z,11.94
2022-12-23T05:18:26.309Z,12.21
2022-12-23T05:20:58.149Z,11.88
2022-12-23T05:23:29.852Z,11.86
2022-12-23T05:26:01.755Z,11.70
2022-12-23T05:28:33.715Z,11.69
2022-12-23T05:31:07.783Z,11.43
2022-12-23T05:33:39.852Z,11.56
2022-12-23T05:36:12.804Z,11.58
2022-12-23T05:38:44.539Z,11.47
2022-12-23T05:41:16.996Z,11.24
2022-12-23T05:43:48.668Z,10.96
2022-12-23T05:46:26.246Z,11.88
2022-12-23T05:48:58.524Z,12.13
2022-12-23T05:51:30.108Z,12.05
2022-12-23T05:54:01.737Z,10.79
2022-12-23T05:56:33.321Z,10.59
2022-12-23T05:59:04.967Z,10.78
2022-12-23T06:01:36.625Z,10.40
2022-12-23T06:04:08.312Z,10.58
2022-12-23T06:06:40.081Z,11.20
2022-12-23T06:09:11.862Z,11.24
2022-12-23T06:11:43.461Z,11.31
2022-12-23T06:14:15.136Z,11.49
2022-12-23T06:16:46.714Z,11.28
2022-12-23T06:19:18.388Z,12.00
2022-12-23T06:21:49.997Z,12.07
2022-12-23T06:24:21.579Z,11.65
2022-12-23T06:26:56.972Z,10.91
2022-12-23T06:29:29.277Z,11.36
2022-12-23T06:32:00.990Z,11.48
2022-12-23T06:34:33.268Z,11.30
2022-12-23T06:37:04.833Z,11.07
2022-12-23T06:39:36.488Z,10.71
2022-12-23T06:42:08.200Z,10.89
2022-12-23T06:44:39.751Z,11.79
2022-12-23T06:47:11.417Z,11.34
2022-12-23T06:49:42.993Z,11.36
2022-12-23T06:52:14.677Z,11.49
2022-12-23T06:54:46.284Z,11.73
2022-12-23T06:57:17.867Z,11.58
2022-12-23T06:59:49.557Z,11.24
2022-12-23T07:02:21.357Z,11.78
2022-12-23T07:04:53.051Z,11.15
2022-12-23T07:07:25.149Z,10.88
2022-12-23T07:09:59.630Z,10.77
2022-12-23T07:12:31.280Z,10.63
2022-12-23T07:15:02.950Z,10.57
2022-12-23T07:17:34.505Z,10.49
2022-12-23T07:20:06.691Z,10.40
2022-12-23T07:22:38.321Z,10.55
2022-12-23T07:25:10.060Z,10.45
2022-12-23T07:27:42.829Z,10.30
2022-12-23T07:30:14.492Z,11.01
2022-12-23T07:32:48.409Z,10.57
2022-12-23T07:35:20.158Z,10.46
2022-12-23T07:37:55.342Z,10.79
2022-12-23T07:40:26.986Z,10.88
2022-12-23T07:42:59.097Z,10.76
2022-12-23T07:45:30.858Z,10.68
2022-12-23T07:48:02.532Z,10.78
2022-12-23T07:50:34.840Z,10.71
2022-12-23T07:53:06.501Z,11.56
2022-12-23T07:55:38.203Z,12.05
2022-12-23T07:58:09.801Z,11.44
2022-12-23T08:00:41.348Z,11.73
2022-12-23T08:03:13.103Z,11.40
2022-12-23T08:05:44.792Z,11.04
2022-12-23T08:08:16.531Z,11.08
2022-12-23T08:10:48.718Z,10.71
2022-12-23T08:13:20.330Z,10.77
2022-12-23T08:15:57.299Z,10.79
2022-12-23T08:18:34.451Z,10.61
2022-12-23T08:21:10.887Z,11.26
2022-12-23T08:23:43.554Z,11.68
2022-12-23T08:26:20.947Z,11.39
2022-12-23T08:28:52.659Z,11.22
2022-12-23T08:31:30.231Z,11.31
2022-12-23T08:34:02.482Z,11.44
2022-12-23T08:36:35.827Z,11.61
2022-12-23T08:39:10.894Z,12.06
2022-12-23T08:41:46.184Z,12.20
2022-12-23T08:44:18.057Z,12.33
2022-12-23T08:46:49.707Z,12.24
2022-12-23T08:49:21.911Z,12.20
2022-12-23T08:51:53.696Z,12.18
2022-12-23T08:54:25.350Z,12.12
2022-12-23T08:56:56.914Z,12.11
2022-12-23T08:59:28.738Z,12.03
2022-12-23T09:02:00.508Z,12.18
2022-12-23T09:04:32.587Z,12.45
2022-12-23T09:07:04.221Z,12.45
2022-12-23T09:09:37.738Z,12.32
2022-12-23T09:12:09.423Z,11.98
2022-12-23T09:14:43.819Z,11.64
2022-12-23T09:17:15.479Z,11.64
2022-12-23T09:19:52.401Z,11.76
2022-12-23T09:22:24.824Z,12.36
2022-12-23T09:25:01.239Z,12.44
2022-12-23T09:27:36.408Z,12.41
2022-12-23T09:30:08.791Z,12.08
2022-12-23T09:32:40.378Z,12.52
2022-12-23T09:35:12.074Z,12.26
2022-12-23T09:37:44.248Z,11.99
2022-12-23T09:40:21.002Z,11.99
2022-12-23T09:43:07.941Z,12.29
2022-12-23T09:45:56.747Z,12.34
2022-12-23T09:48:37.170Z,12.59
2022-12-23T09:51:12.634Z,12.46
2022-12-23T09:53:55.631Z,13.08
2022-12-23T09:56:58.422Z,12.58
2022-12-23T10:00:03.757Z,12.73
2022-12-23T10:03:01.922Z,11.89
2022-12-23T10:05:48.288Z,11.70
2022-12-23T10:08:38.217Z,11.64
2022-12-23T10:11:39.772Z,11.59
2022-12-23T10:14:34.172Z,12.32
2022-12-23T10:17:16.099Z,12.32
2022-12-23T10:19:50.358Z,12.10
2022-12-23T10:22:25.283Z,12.34
2022-12-23T10:25:00.406Z,12.20
2022-12-23T10:27:39.621Z,13.06
2022-12-23T10:33:24.372Z,12.61
2022-12-23T10:36:11.950Z,12.40
2022-12-23T10:39:05.629Z,12.44
2022-12-23T10:42:12.856Z,12.59
2022-12-23T10:45:06.758Z,12.78
2022-12-23T10:47:59.526Z,12.78
2022-12-23T10:50:59.574Z,12.73
2022-12-23T10:53:56.374Z,12.88
2022-12-23T10:56:31.564Z,13.10
2022-12-23T10:59:03.695Z,12.97
2022-12-23T11:01:35.668Z,13.09
2022-12-23T11:04:15.313Z,12.96
2022-12-23T11:07:10.756Z,13.13
2022-12-23T11:09:54.219Z,13.06
2022-12-23T11:12:42.252Z,13.08
2022-12-23T11:15:38.983Z,12.84
2022-12-23T11:18:13.674Z,12.66
2022-12-23T11:21:01.114Z,12.86
2022-12-23T11:23:35.940Z,12.78
2022-12-23T11:26:13.341Z,12.79
2022-12-23T11:29:02.790Z,12.58
2022-12-23T11:31:36.788Z,12.77
2022-12-23T11:34:20.641Z,12.61
2022-12-23T11:37:03.332Z,12.55
2022-12-23T11:39:37.917Z,12.70
2022-12-23T11:42:18.440Z,12.67
2022-12-23T11:44:54.220Z,12.83
2022-12-23T11:47:41.526Z,12.74
2022-12-23T11:50:36.451Z,12.71
2022-12-23T11:53:22.828Z,12.70
2022-12-23T11:56:12.373Z,12.86
2022-12-23T11:58:50.656Z,13.01
2022-12-23T12:01:25.211Z,13.11
2022-12-23T12:04:02.996Z,12.92
2022-12-23T12:06:36.374Z,13.11
2022-12-23T12:09:13.703Z,12.96
2022-12-23T12:11:51.816Z,12.82
2022-12-23T12:14:32.470Z,13.04
2022-12-23T12:17:26.544Z,12.85
2022-12-23T12:20:22.960Z,12.77
2022-12-23T12:23:01.221Z,12.86
2022-12-23T12:25:53.090Z,12.74
2022-12-23T12:28:32.665Z,12.79
2022-12-23T12:31:04.368Z,12.65
2022-12-23T12:34:02.721Z,12.65
2022-12-23T12:36:55.093Z,12.90
2022-12-23T12:39:34.743Z,12.76
2022-12-23T12:42:29.070Z,12.86
2022-12-23T12:45:24.031Z,12.88
2022-12-23T12:48:29.385Z,12.98
2022-12-23T12:51:37.905Z,13.24
2022-12-23T12:54:21.820Z,13.17
2022-12-23T12:56:56.601Z,12.90
2022-12-23T12:59:33.719Z,12.73
2022-12-23T13:02:36.774Z,12.78
2022-12-23T13:05:53.390Z,12.95
2022-12-23T13:09:02.640Z,12.77
2022-12-23T13:11:36.853Z,12.92
2022-12-23T13:14:33.628Z,12.88
2022-12-23T13:17:14.905Z,12.94
2022-12-23T13:19:55.706Z,13.09
2022-12-23T13:22:34.602Z,12.89
2022-12-23T13:25:15.192Z,13.04
2022-12-23T13:27:55.825Z,12.93
2022-12-23T13:30:38.411Z,12.90
2022-12-23T13:34:05.772Z,13.01
2022-12-23T13:36:55.285Z,13.00
2022-12-23T13:39:45.392Z,12.97
2022-12-23T13:42:42.848Z,13.02
2022-12-23T13:45:17.981Z,13.29
2022-12-23T13:48:08.277Z,13.40
2022-12-23T13:51:03.598Z,13.12
2022-12-23T13:54:04.168Z,13.34
2022-12-23T13:56:58.441Z,13.29
2022-12-23T13:59:42.051Z,13.42
2022-12-23T14:03:03.859Z,13.15
2022-12-23T14:05:38.360Z,13.29
2022-12-23T14:08:19.198Z,13.41
2022-12-23T14:10:56.779Z,13.21
2022-12-23T14:13:39.829Z,13.03
2022-12-23T14:16:37.006Z,13.13
2022-12-23T14:19:36.793Z,13.20
2022-12-23T14:22:36.045Z,13.14
2022-12-23T14:25:36.342Z,13.23
2022-12-23T14:28:27.304Z,13.53
2022-12-23T14:30:59.389Z,13.40
2022-12-23T14:33:37.326Z,13.71
2022-12-23T14:36:15.223Z,13.60
2022-12-23T14:39:11.548Z,13.65
2022-12-23T14:41:53.805Z,13.64
2022-12-23T14:44:37.635Z,13.77
2022-12-23T14:47:33.620Z,13.36
2022-12-23T14:50:55.673Z,13.12
2022-12-23T14:53:32.613Z,13.19
2022-12-23T14:56:16.046Z,13.09
2022-12-23T14:58:59.436Z,13.53
2022-12-23T15:01:46.261Z,13.21
2022-12-23T15:04:37.487Z,13.14
2022-12-23T15:07:24.443Z,13.16
2022-12-23T15:10:03.078Z,13.43
2022-12-23T15:12:42.135Z,12.92
2022-12-23T15:15:19.528Z,13.18
2022-12-23T15:18:12.118Z,13.22
2022-12-23T15:20:43.962Z,12.98
2022-12-23T15:23:17.185Z,12.85
2022-12-23T15:25:49.967Z,12.79
2022-12-23T15:28:42.319Z,13.04
2022-12-23T15:31:31.466Z,13.03
2022-12-23T15:34:16.494Z,13.28
2022-12-23T15:36:50.413Z,13.21
2022-12-23T15:39:37.373Z,13.19
2022-12-23T15:42:26.587Z,13.10
2022-12-23T15:44:58.775Z,13.19
2022-12-23T15:47:37.996Z,12.91
2022-12-23T15:50:14.274Z,12.89
2022-12-23T15:52:50.402Z,12.89
2022-12-23T15:55:31.255Z,12.84
2022-12-23T15:58:04.908Z,12.82
2022-12-23T16:00:50.241Z,12.68
2022-12-23T16:03:37.055Z,12.74
2022-12-23T16:06:26.657Z,12.96
2022-12-23T16:09:16.486Z,13.02
2022-12-23T16:12:22.864Z,12.81
2022-12-23T16:14:57.727Z,13.01
2022-12-23T16:17:35.662Z,12.87
2022-12-23T16:20:26.494Z,12.75
2022-12-23T16:23:03.078Z,12.71
2022-12-23T16:25:35.222Z,12.84
2022-12-23T16:28:14.859Z,12.69
2022-12-23T16:30:47.725Z,12.70
2022-12-23T16:33:23.027Z,12.60
2022-12-23T16:35:55.003Z,12.74
2022-12-23T16:38:27.092Z,12.84
2022-12-23T16:40:58.679Z,12.91
2022-12-23T16:43:30.948Z,13.01
2022-12-23T16:46:03.191Z,12.88
2022-12-23T16:48:48.787Z,12.72
2022-12-23T16:51:21.958Z,12.73
2022-12-23T16:53:56.287Z,12.66
2022-12-23T16:56:36.258Z,12.70
2022-12-23T16:59:09.606Z,12.76
2022-12-23T17:01:45.874Z,12.70
2022-12-23T17:04:17.608Z,12.75
2022-12-23T17:06:49.276Z,12.74
2022-12-23T17:09:20.837Z,12.64
2022-12-23T17:11:53.534Z,12.83
2022-12-23T17:14:25.795Z,12.82
2022-12-23T17:16:58.497Z,12.72
2022-12-23T17:19:30.139Z,12.90
2022-12-23T17:22:03.432Z,12.76
2022-12-23T17:24:35.213Z,12.74
2022-12-23T17:27:15.636Z,12.80
2022-12-23T17:29:47.217Z,12.86
2022-12-23T17:32:19.359Z,12.98
2022-12-23T17:34:51.015Z,12.87
2022-12-23T17:37:22.756Z,12.81
2022-12-23T17:39:55.563Z,12.70
2022-12-23T17:42:27.245Z,12.80
2022-12-23T17:44:58.839Z,12.69
2022-12-23T17:47:30.496Z,12.62
2022-12-23T17:50:02.113Z,12.55
2022-12-23T17:52:33.660Z,12.68
2022-12-23T17:55:06.700Z,12.60
2022-12-23T17:57:38.361Z,12.72
2022-12-23T18:00:10.515Z,12.87
2022-12-23T18:02:46.109Z,12.89
2022-12-23T18:05:20.232Z,12.95
2022-12-23T18:07:54.042Z,12.85
2022-12-23T18:10:31.795Z,12.77
2022-12-23T18:13:07.905Z,12.77
2022-12-23T18:15:43.082Z,12.70
2022-12-23T18:18:30.165Z,12.73
2022-12-23T18:21:07.700Z,12.60
2022-12-23T18:23:39.342Z,12.61
2022-12-23T18:26:14.581Z,12.61
2022-12-23T18:28:46.375Z,12.88
2022-12-23T18:31:24.117Z,12.63
2022-12-23T18:33:56.220Z,12.81
2022-12-23T18:36:30.942Z,12.83
2022-12-23T18:39:02.562Z,12.76
2022-12-23T18:41:34.181Z,12.69
2022-12-23T18:44:05.775Z,12.69
2022-12-23T18:46:37.345Z,12.74
2022-12-23T18:49:08.899Z,12.74
2022-12-23T18:51:40.462Z,12.67
2022-12-23T18:54:16.021Z,13.00
2022-12-23T18:56:47.673Z,12.79
2022-12-23T18:59:29.159Z,12.66
2022-12-23T19:02:01.370Z,12.65
2022-12-23T19:04:32.949Z,12.60
2022-12-23T19:07:04.536Z,12.48
2022-12-23T19:09:36.144Z,12.44
2022-12-23T19:12:08.757Z,12.59
2022-12-23T19:14:40.378Z,12.50
2022-12-23T19:17:11.946Z,12.47
2022-12-23T19:19:43.536Z,12.46
2022-12-23T19:22:15.225Z,12.46
2022-12-23T19:25:03.800Z,12.57
2022-12-23T19:27:39.668Z,12.50
2022-12-23T19:30:14.405Z,12.72
2022-12-23T19:32:46.630Z,12.79
2022-12-23T19:35:18.339Z,12.74
2022-12-23T19:37:50.481Z,12.73
2022-12-23T19:40:22.275Z,12.83
2022-12-23T19:42:53.907Z,12.86
2022-12-23T19:45:25.573Z,12.91
2022-12-23T19:47:57.306Z,13.19
2022-12-23T19:50:29.001Z,13.23
2022-12-23T19:53:00.698Z,13.39
2022-12-23T19:55:32.321Z,13.31
2022-12-23T19:58:03.973Z,13.13
2022-12-23T20:00:35.619Z,13.04
2022-12-23T20:03:07.247Z,12.95
2022-12-23T20:05:38.897Z,12.82
2022-12-23T20:08:10.561Z,12.69
2022-12-23T20:10:43.954Z,12.61
2022-12-23T20:13:15.565Z,12.77
2022-12-23T20:15:47.177Z,12.71
2022-12-23T20:18:18.767Z,12.87
2022-12-23T20:20:50.572Z,12.96
2022-12-23T20:23:22.147Z,13.09
2022-12-23T20:25:53.996Z,13.23
2022-12-23T20:28:26.190Z,13.34
2022-12-23T20:31:04.673Z,13.12
2022-12-23T20:33:38.980Z,13.12
2022-12-23T20:36:13.057Z,13.07
2022-12-23T20:39:00.928Z,13.00
2022-12-23T20:41:33.553Z,12.84
2022-12-23T20:46:57.053Z,12.85
2022-12-23T20:49:28.715Z,12.94
2022-12-23T20:52:00.382Z,12.97
2022-12-23T20:54:33.595Z,13.17
2022-12-23T20:57:05.579Z,13.10
2022-12-23T20:59:37.453Z,13.00
2022-12-23T21:02:13.290Z,12.99
2022-12-23T21:04:45.423Z,13.00
2022-12-23T21:07:17.114Z,13.07
2022-12-23T21:09:48.840Z,13.22
2022-12-23T21:12:20.504Z,13.49
2022-12-23T21:14:52.140Z,13.50
2022-12-23T21:17:23.733Z,13.34
2022-12-23T21:19:55.449Z,13.42
2022-12-23T21:22:27.115Z,13.29
2022-12-23T21:24:58.756Z,13.09
2022-12-23T21:27:30.283Z,12.96
2022-12-23T21:30:02.110Z,13.02
2022-12-23T21:32:33.677Z,13.06
2022-12-23T21:35:05.803Z,13.19
2022-12-23T21:37:37.600Z,13.28
2022-12-23T21:40:18.240Z,13.37
2022-12-23T21:42:50.096Z,13.38
2022-12-23T21:45:21.689Z,13.07
2022-12-23T21:47:53.300Z,12.93
2022-12-23T21:50:24.901Z,13.18
2022-12-23T21:52:56.690Z,13.19
2022-12-23T21:55:28.254Z,13.04
2022-12-23T21:57:59.913Z,12.94
2022-12-23T22:00:31.545Z,13.12
2022-12-23T22:03:03.139Z,13.04
2022-12-23T22:05:34.689Z,13.19
2022-12-23T22:08:06.242Z,13.01
2022-12-23T22:10:38.132Z,12.78
2022-12-23T22:13:09.685Z,12.85
2022-12-23T22:15:42.865Z,12.92
2022-12-23T22:18:14.421Z,12.95
2022-12-23T22:20:46.548Z,12.93
2022-12-23T22:23:18.246Z,12.94
2022-12-23T22:25:56.239Z,13.00
2022-12-23T22:28:31.390Z,12.96
2022-12-23T22:31:44.672Z,13.17
2022-12-23T22:34:21.377Z,13.29
2022-12-23T22:36:53.069Z,13.01
2022-12-23T22:39:24.706Z,13.05
2022-12-23T22:41:56.296Z,12.93
2022-12-23T22:44:27.812Z,12.89
2022-12-23T22:46:59.452Z,12.88
2022-12-23T22:49:31.150Z,12.93
2022-12-23T22:52:02.793Z,13.05
2022-12-23T22:54:34.408Z,13.20
2022-12-23T22:57:05.989Z,13.33
2022-12-23T22:59:38.026Z,13.29
2022-12-23T23:02:09.633Z,13.17
2022-12-23T23:04:41.166Z,13.30
2022-12-23T23:07:12.809Z,13.19
2022-12-23T23:09:44.535Z,13.24
2022-12-23T23:12:16.135Z,13.07
2022-12-23T23:14:47.724Z,13.11
2022-12-23T23:17:22.836Z,13.01
2022-12-23T23:19:54.682Z,13.12
2022-12-23T23:22:26.448Z,13.15
2022-12-23T23:24:58.084Z,13.08
2022-12-23T23:27:29.662Z,13.21
2022-12-23T23:30:01.241Z,13.10
2022-12-23T23:32:32.853Z,13.02
2022-12-23T23:35:10.490Z,12.99
2022-12-23T23:37:42.591Z,12.92
2022-12-23T23:40:14.294Z,12.99
2022-12-23T23:42:45.844Z,12.98
2022-12-23T23:45:17.368Z,12.96
2022-12-23T23:47:48.956Z,12.98
2022-12-23T23:50:21.096Z,13.07
2022-12-23T23:52:52.727Z,12.98
2022-12-23T23:55:24.370Z,12.93
2022-12-23T23:57:56.219Z,13.08
